createdAt,value
2023-11-29T00:01:01.793Z,17.7
2023-11-29T00:06:07.998Z,17.7
2023-11-29T00:11:14.563Z,17.7
2023-11-29T00:16:21.135Z,17.7
2023-11-29T00:21:27.580Z,17.6
2023-11-29T00:26:34.068Z,17.7
2023-11-29T00:31:40.566Z,17.6
2023-11-29T00:36:46.689Z,17.6
2023-11-29T00:41:53.578Z,17.6
2023-11-29T00:46:59.912Z,17.6
2023-11-29T00:52:05.418Z,17.6
2023-11-29T00:57:11.769Z,17.6
2023-11-29T01:02:18.263Z,17.6
2023-11-29T01:07:24.698Z,17.6
2023-11-29T01:12:31.235Z,17.7
2023-11-29T01:17:37.786Z,17.7
2023-11-29T01:22:44.297Z,17.6
2023-11-29T01:27:50.809Z,17.6
2023-11-29T01:32:57.308Z,17.7
2023-11-29T01:38:03.673Z,17.7
2023-11-29T01:43:10.091Z,17.6
2023-11-29T01:48:16.672Z,17.6
2023-11-29T01:53:23.137Z,17.6
2023-11-29T01:58:28.657Z,17.6
2023-11-29T02:03:34.975Z,17.6
2023-11-29T02:08:41.650Z,17.6
2023-11-29T02:13:47.775Z,17.6
2023-11-29T02:18:54.453Z,17.6
2023-11-29T02:24:00.764Z,17.6
2023-11-29T02:29:07.527Z,17.6
2023-11-29T02:34:13.934Z,17.5
2023-11-29T02:39:20.488Z,17.6
2023-11-29T02:44:26.921Z,17.5
2023-11-29T02:49:33.365Z,17.5
2023-11-29T02:54:39.785Z,17.5
2023-11-29T02:59:46.288Z,17.5
2023-11-29T03:04:51.869Z,17.5
2023-11-29T03:09:58.333Z,17.5
2023-11-29T03:15:04.830Z,17.5
2023-11-29T03:20:10.956Z,17.5
2023-11-29T03:25:17.432Z,17.5
2023-11-29T03:30:24.077Z,17.5
2023-11-29T03:35:30.715Z,17.5
2023-11-29T03:40:37.135Z,17.6
2023-11-29T03:45:43.288Z,17.6
2023-11-29T03:50:50.027Z,17.6
2023-11-29T03:55:56.546Z,17.6
2023-11-29T04:01:02.952Z,17.6
2023-11-29T04:06:09.541Z,17.6
2023-11-29T04:11:14.977Z,17.6
2023-11-29T04:16:21.476Z,17.6
2023-11-29T04:21:28.016Z,17.5
2023-11-29T04:26:34.131Z,17.5
2023-11-29T04:31:41.012Z,17.6
2023-11-29T04:36:47.329Z,17.6
2023-11-29T04:41:53.903Z,17.6
2023-11-29T04:47:00.308Z,17.6
2023-11-29T04:52:06.500Z,17.6
2023-11-29T04:57:13.197Z,17.6
2023-11-29T05:02:19.685Z,17.6
2023-11-29T05:07:26.215Z,17.6
2023-11-29T05:12:32.610Z,17.6
2023-11-29T05:17:38.278Z,17.7
2023-11-29T05:22:44.686Z,17.7
2023-11-29T05:27:51.137Z,17.7
2023-11-29T05:32:57.444Z,17.7
2023-11-29T05:38:04.093Z,17.7
2023-11-29T05:43:10.242Z,17.8
2023-11-29T05:48:16.998Z,17.8
2023-11-29T05:53:23.493Z,17.8
2023-11-29T05:58:29.944Z,17.8
2023-11-29T06:03:36.426Z,17.8
2023-11-29T06:08:42.569Z,17.8
2023-11-29T06:13:49.032Z,17.9
2023-11-29T06:18:55.838Z,17.9
2023-11-29T06:24:01.296Z,17.9
2023-11-29T06:29:07.797Z,18
2023-11-29T06:34:14.234Z,18
2023-11-29T06:39:20.672Z,18
2023-11-29T06:44:27.061Z,18
2023-11-29T06:49:33.412Z,18
2023-11-29T06:54:39.690Z,18
2023-11-29T06:59:46.327Z,18
2023-11-29T07:04:52.670Z,18
2023-11-29T07:09:59.078Z,18
2023-11-29T07:15:05.527Z,18
2023-11-29T07:20:11.971Z,18
2023-11-29T07:25:18.393Z,18
2023-11-29T07:30:23.734Z,18
2023-11-29T07:35:30.296Z,18
2023-11-29T07:40:36.759Z,18
2023-11-29T07:45:43.162Z,18.1
2023-11-29T07:50:49.260Z,18.1
2023-11-29T07:55:55.981Z,18.1
2023-11-29T08:01:02.328Z,18.2
2023-11-29T08:06:08.757Z,18.2
2023-11-29T08:11:15.134Z,18.2
2023-11-29T08:16:21.462Z,18.2
2023-11-29T08:21:28.003Z,18.2
2023-11-29T08:26:34.365Z,18.2
2023-11-29T08:31:40.791Z,18.1
2023-11-29T08:36:46.361Z,18.2
2023-11-29T08:41:52.707Z,18.1
2023-11-29T08:46:59.166Z,18.1
2023-11-29T08:52:05.618Z,18.1
2023-11-29T08:57:11.694Z,18.2
2023-11-29T09:02:18.405Z,18.2
2023-11-29T09:07:24.842Z,18.3
2023-11-29T09:12:31.151Z,18.4
2023-11-29T09:17:37.754Z,18.4
2023-11-29T09:22:43.744Z,18.4
2023-11-29T09:27:50.496Z,18.4
2023-11-29T09:32:56.895Z,18.4
2023-11-29T09:38:03.316Z,18.4
2023-11-29T09:43:08.815Z,18.4
2023-11-29T09:48:15.332Z,18.4
2023-11-29T09:53:21.694Z,18.4
2023-11-29T09:58:27.755Z,18.4
2023-11-29T10:03:34.542Z,18.4
2023-11-29T10:08:40.850Z,18.5
2023-11-29T10:13:46.991Z,18.5
2023-11-29T10:18:53.593Z,18.5
2023-11-29T10:23:59.814Z,18.5
2023-11-29T10:29:06.548Z,18.5
2023-11-29T10:34:12.933Z,18.5
2023-11-29T10:39:19.356Z,18.5
2023-11-29T10:44:25.456Z,18.5
2023-11-29T10:49:31.305Z,18.6
2023-11-29T10:54:37.941Z,18.6
2023-11-29T10:59:44.128Z,18.6
2023-11-29T11:04:50.221Z,18.6
2023-11-29T11:09:56.859Z,18.6
2023-11-29T11:15:03.326Z,18.6
2023-11-29T11:20:08.843Z,18.6
2023-11-29T11:25:15.415Z,18.6
2023-11-29T11:30:21.602Z,18.7
2023-11-29T11:35:28.092Z,18.7
2023-11-29T11:40:34.529Z,18.7
2023-11-29T11:45:40.820Z,18.7
2023-11-29T11:50:47.410Z,18.7
2023-11-29T11:55:53.741Z,18.7
2023-11-29T12:00:59.878Z,18.7
2023-11-29T12:06:06.598Z,18.7
2023-11-29T12:11:13.090Z,18.7
2023-11-29T12:16:19.434Z,18.7
2023-11-29T12:21:25.761Z,18.7
2023-11-29T12:26:31.228Z,18.7
2023-11-29T12:31:37.825Z,18.8
2023-11-29T12:36:44.250Z,18.8
2023-11-29T12:41:50.604Z,18.8
2023-11-29T12:46:57.016Z,18.8
2023-11-29T12:52:03.459Z,18.8
2023-11-29T12:57:09.521Z,18.8
2023-11-29T13:02:16.231Z,18.8
2023-11-29T13:07:22.667Z,18.8
2023-11-29T13:12:29.059Z,18.7
2023-11-29T13:17:35.423Z,18.7
2023-11-29T13:22:41.963Z,18.7
2023-11-29T13:27:48.198Z,18.7
2023-11-29T13:32:53.821Z,18.6
2023-11-29T13:38:00.315Z,18.6
2023-11-29T13:43:06.643Z,18.6
2023-11-29T13:48:12.980Z,18.7
2023-11-29T13:53:19.481Z,18.6
2023-11-29T13:58:25.877Z,18.7
2023-11-29T14:03:32.321Z,18.7
2023-11-29T14:08:38.772Z,18.8
2023-11-29T14:13:45.140Z,18.8
2023-11-29T14:18:51.571Z,18.8
2023-11-29T14:23:57.994Z,18.7
2023-11-29T14:29:04.442Z,18.7
2023-11-29T14:34:10.813Z,18.7
2023-11-29T14:39:16.320Z,18.7
2023-11-29T14:44:22.760Z,18.6
2023-11-29T14:49:29.166Z,18.6
2023-11-29T14:54:35.552Z,18.6
2023-11-29T14:59:41.655Z,18.6
2023-11-29T15:04:48.377Z,18.6
2023-11-29T15:09:54.776Z,18.5
2023-11-29T15:15:01.247Z,18.5
2023-11-29T15:20:07.559Z,18.5
2023-11-29T15:25:14.037Z,18.5
2023-11-29T15:30:20.553Z,18.5
2023-11-29T15:35:26.788Z,18.5
2023-11-29T15:40:33.273Z,18.5
2023-11-29T15:45:38.847Z,18.5
2023-11-29T15:50:45.286Z,18.5
2023-11-29T15:55:51.657Z,18.4
2023-11-29T16:00:58.234Z,18.4
2023-11-29T16:06:04.762Z,18.4
2023-11-29T16:11:11.196Z,18.5
2023-11-29T16:16:17.399Z,18.5
2023-11-29T16:21:24.108Z,18.5
2023-11-29T16:26:30.499Z,18.5
2023-11-29T16:31:37.069Z,18.5
2023-11-29T16:36:43.187Z,18.5
2023-11-29T16:41:49.851Z,18.5
2023-11-29T16:46:56.416Z,18.4
2023-11-29T16:52:01.977Z,18.4
2023-11-29T16:57:08.449Z,18.4
2023-11-29T17:02:14.953Z,18.4
2023-11-29T17:07:21.400Z,18.4
2023-11-29T17:12:27.880Z,18.4
2023-11-29T17:17:34.110Z,18.4
2023-11-29T17:22:40.758Z,18.3
2023-11-29T17:27:46.899Z,18.3
2023-11-29T17:32:53.770Z,18.3
2023-11-29T17:38:00.192Z,18.3
2023-11-29T17:43:06.587Z,18.3
2023-11-29T17:48:13.077Z,18.3
2023-11-29T17:53:19.609Z,18.3
2023-11-29T17:58:25.168Z,18.2
2023-11-29T18:03:31.299Z,18.2
2023-11-29T18:08:38.220Z,18.2
2023-11-29T18:13:44.554Z,18.2
2023-11-29T18:18:51.030Z,18.2
2023-11-29T18:23:57.658Z,18.2
2023-11-29T18:29:04.044Z,18.2
2023-11-29T18:34:10.100Z,18.2
2023-11-29T18:39:16.869Z,18.2
2023-11-29T18:44:23.369Z,18.2
2023-11-29T18:49:29.859Z,18.2
2023-11-29T18:54:36.269Z,18.3
2023-11-29T18:59:42.729Z,18.3
2023-11-29T19:04:48.374Z,18.3
2023-11-29T19:09:54.913Z,18.3
2023-11-29T19:15:01.306Z,18.3
2023-11-29T19:20:07.716Z,18.2
2023-11-29T19:25:14.188Z,18.2
2023-11-29T19:30:20.558Z,18.2
2023-11-29T19:35:26.918Z,18.1
2023-11-29T19:40:33.340Z,18.1
2023-11-29T19:45:39.741Z,18.1
2023-11-29T19:50:46.359Z,18.1
2023-11-29T19:55:52.948Z,18
2023-11-29T20:00:59.494Z,18
2023-11-29T20:06:05.954Z,18
2023-11-29T20:11:11.513Z,17.9
2023-11-29T20:16:17.981Z,18
2023-11-29T20:21:24.418Z,18
2023-11-29T20:26:30.964Z,17.9
2023-11-29T20:31:37.197Z,17.9
2023-11-29T20:36:43.813Z,17.9
2023-11-29T20:41:50.292Z,17.9
2023-11-29T20:46:56.454Z,17.9
2023-11-29T20:52:03.195Z,17.9
2023-11-29T20:57:09.644Z,17.9
2023-11-29T21:02:15.837Z,17.9
2023-11-29T21:07:22.650Z,17.9
2023-11-29T21:12:29.099Z,17.9
2023-11-29T21:17:34.688Z,17.9
2023-11-29T21:22:41.142Z,17.9
2023-11-29T21:27:47.626Z,17.9
2023-11-29T21:32:54.090Z,17.9
2023-11-29T21:38:00.506Z,17.9
2023-11-29T21:43:06.990Z,17.9
2023-11-29T21:48:13.478Z,17.9
2023-11-29T21:53:19.947Z,17.9
2023-11-29T21:58:26.380Z,17.9
2023-11-29T22:03:32.849Z,17.8
2023-11-29T22:08:39.324Z,17.8
2023-11-29T22:13:45.866Z,17.8
2023-11-29T22:18:52.091Z,17.8
2023-11-29T22:23:57.711Z,17.8
2023-11-29T22:29:04.295Z,17.8
2023-11-29T22:34:10.612Z,17.8
2023-11-29T22:39:17.180Z,17.8
2023-11-29T22:44:23.744Z,17.8
2023-11-29T22:49:30.242Z,17.8
2023-11-29T22:54:36.433Z,17.8
2023-11-29T22:59:43.010Z,17.8
2023-11-29T23:04:49.516Z,17.8
2023-11-29T23:09:55.746Z,17.8
2023-11-29T23:15:02.553Z,17.8
2023-11-29T23:20:08.929Z,17.8
2023-11-29T23:25:15.424Z,17.8
2023-11-29T23:30:21.057Z,17.8
2023-11-29T23:35:27.345Z,17.7
2023-11-29T23:40:33.775Z,17.8
2023-11-29T23:45:40.212Z,17.8
2023-11-29T23:50:46.879Z,17.8
2023-11-29T23:55:53.098Z,17.8
